Time;durP1;ratioP1;P1;durP2;ratioP2;P2;SDS_P1;SDS_P2;PMS_P1;PMS_P2;Temp;Humidity;BMP_temperature;BMP_pressure;BME280_temperature;BME280_humidity;BME280_pressure;Samples;Min_cycle;Max_cycle;Signal;HPM_P1;HPM_P2
2023/12/02 00:01:55;;;;;;;65.57;8.73;;;6.00;99.90;;;;;;4984353;28;20143;-49
2023/12/02 00:04:21;;;;;;;54.67;9.15;;;6.00;99.90;;;;;;4984196;28;20039;-49
2023/12/02 00:06:46;;;;;;;54.95;8.98;;;6.00;99.90;;;;;;4969330;28;20023;-48
2023/12/02 00:09:12;;;;;;;67.68;9.27;;;6.00;99.90;;;;;;4984092;28;20031;-49
2023/12/02 00:11:38;;;;;;;58.00;9.15;;;5.90;99.90;;;;;;4969126;28;20047;-49
2023/12/02 00:14:03;;;;;;;55.97;9.18;;;5.90;99.90;;;;;;4983953;28;20082;-49
2023/12/02 00:16:29;;;;;;;59.20;8.88;;;5.90;99.90;;;;;;4969059;28;20384;-49
2023/12/02 00:18:55;;;;;;;48.30;8.75;;;5.90;99.90;;;;;;4969095;28;20047;-49
2023/12/02 00:21:21;;;;;;;40.05;7.57;;;5.90;99.90;;;;;;4968849;28;20035;-49
2023/12/02 00:23:46;;;;;;;63.42;8.15;;;5.90;99.90;;;;;;4983408;28;20064;-49
2023/12/02 00:26:12;;;;;;;42.13;8.18;;;5.90;99.90;;;;;;4968941;28;20106;-49
2023/12/02 00:28:37;;;;;;;55.03;9.50;;;5.90;99.90;;;;;;4983643;28;20086;-49
2023/12/02 00:31:04;;;;;;;57.70;8.15;;;5.90;99.90;;;;;;4968848;28;20024;-49
2023/12/02 00:33:29;;;;;;;47.55;7.75;;;5.90;99.90;;;;;;4983503;28;20050;-49
2023/12/02 00:35:55;;;;;;;49.20;8.18;;;5.80;99.90;;;;;;4968682;28;20031;-49
2023/12/02 00:38:24;;;;;;;40.95;8.75;;;5.90;99.90;;;;;;4968440;28;20035;-49
2023/12/02 00:40:49;;;;;;;37.28;6.57;;;5.80;99.90;;;;;;4968694;28;20058;-49
2023/12/02 00:43:15;;;;;;;42.63;6.78;;;5.80;99.90;;;;;;4968525;28;20384;-49
2023/12/02 00:45:41;;;;;;;51.47;8.63;;;5.80;99.90;;;;;;4968655;29;20031;-49
2023/12/02 00:48:06;;;;;;;53.75;7.47;;;5.80;99.90;;;;;;4983389;28;20055;-49
2023/12/02 00:50:32;;;;;;;38.60;6.70;;;5.80;99.90;;;;;;4968306;28;20035;-49
2023/12/02 00:52:57;;;;;;;37.58;6.40;;;5.80;99.90;;;;;;4983278;28;20031;-49
2023/12/02 00:55:23;;;;;;;41.78;6.68;;;5.80;99.90;;;;;;4968610;28;20484;-49
2023/12/02 00:57:49;;;;;;;42.83;6.68;;;5.80;99.90;;;;;;4968497;28;20035;-49
2023/12/02 01:00:15;;;;;;;31.58;6.53;;;5.80;99.90;;;;;;4983190;28;20476;-49
2023/12/02 01:02:41;;;;;;;35.42;6.30;;;5.80;99.90;;;;;;4983195;28;20114;-49
2023/12/02 01:05:07;;;;;;;31.98;6.97;;;5.70;99.90;;;;;;4983055;28;20120;-49
2023/12/02 01:07:33;;;;;;;35.22;5.78;;;5.70;99.90;;;;;;4983011;28;20032;-49
2023/12/02 01:09:58;;;;;;;43.20;6.05;;;5.80;99.90;;;;;;4982939;28;20028;-49
2023/12/02 01:12:24;;;;;;;33.78;5.50;;;5.70;99.90;;;;;;4983056;28;20074;-49
2023/12/02 01:14:49;;;;;;;33.50;5.95;;;5.70;99.90;;;;;;4983035;28;20035;-49
2023/12/02 01:17:16;;;;;;;32.58;6.30;;;5.70;99.90;;;;;;4982798;28;20059;-49
2023/12/02 01:19:42;;;;;;;46.13;5.57;;;5.70;99.90;;;;;;4982590;28;20075;-49
2023/12/02 01:22:08;;;;;;;24.77;6.00;;;5.70;99.90;;;;;;4966141;28;20031;-49
2023/12/02 01:24:34;;;;;;;31.77;5.30;;;5.70;99.90;;;;;;4968096;28;20090;-49
2023/12/02 01:26:59;;;;;;;27.33;5.90;;;5.70;99.90;;;;;;4968083;29;20471;-49
2023/12/02 01:29:25;;;;;;;37.67;6.28;;;5.70;99.90;;;;;;4966683;29;20047;-49
2023/12/02 01:31:50;;;;;;;37.65;5.65;;;5.70;99.90;;;;;;4982793;28;20030;-49
2023/12/02 01:34:16;;;;;;;40.15;6.22;;;5.70;99.90;;;;;;4982822;28;20364;-49
2023/12/02 01:36:42;;;;;;;37.78;5.85;;;5.70;99.90;;;;;;4982739;28;20155;-49
2023/12/02 01:39:07;;;;;;;24.50;5.63;;;5.70;99.90;;;;;;4982536;28;20095;-49
2023/12/02 01:41:33;;;;;;;31.67;6.03;;;5.60;99.90;;;;;;4967847;28;20038;-49
2023/12/02 01:43:58;;;;;;;30.67;6.22;;;5.70;99.90;;;;;;4967734;28;20103;-48
2023/12/02 01:46:26;;;;;;;23.08;5.20;;;5.70;99.90;;;;;;4966529;29;20506;-49
2023/12/02 01:48:52;;;;;;;22.20;4.90;;;5.60;99.90;;;;;;4967824;28;20031;-49
2023/12/02 01:51:18;;;;;;;24.70;4.72;;;5.60;99.90;;;;;;4966463;29;20038;-49
2023/12/02 01:53:43;;;;;;;25.20;5.00;;;5.60;99.90;;;;;;4967731;28;20035;-49
2023/12/02 01:56:09;;;;;;;31.38;5.45;;;5.60;99.90;;;;;;4967793;28;20039;-49
2023/12/02 01:58:36;;;;;;;27.05;5.45;;;5.60;99.90;;;;;;4982724;28;20039;-49
2023/12/02 02:01:02;;;;;;;22.55;4.97;;;5.60;99.90;;;;;;4982593;28;20027;-49
2023/12/02 02:03:28;;;;;;;27.38;5.32;;;5.60;99.90;;;;;;4982597;28;20027;-50
2023/12/02 02:05:53;;;;;;;23.40;5.18;;;5.60;99.90;;;;;;4967662;28;20059;-49
2023/12/02 02:08:19;;;;;;;28.73;4.97;;;5.60;99.90;;;;;;4982470;28;20019;-49
2023/12/02 02:10:45;;;;;;;27.55;6.25;;;5.50;99.90;;;;;;4967526;28;20488;-49
2023/12/02 02:13:10;;;;;;;24.23;5.53;;;5.50;99.90;;;;;;4982361;28;20031;-49
2023/12/02 02:15:36;;;;;;;28.63;4.60;;;5.60;99.90;;;;;;4966259;29;20039;-49
2023/12/02 02:18:02;;;;;;;30.38;4.95;;;5.50;99.90;;;;;;4982335;28;20399;-50
2023/12/02 02:20:28;;;;;;;21.20;5.78;;;5.50;99.90;;;;;;4967554;28;20035;-49
2023/12/02 02:22:53;;;;;;;17.65;4.55;;;5.50;99.90;;;;;;4967600;28;20497;-49
2023/12/02 02:25:19;;;;;;;21.33;5.15;;;5.50;99.90;;;;;;4967613;28;20487;-49
2023/12/02 02:27:44;;;;;;;23.02;4.45;;;5.50;99.90;;;;;;4967459;29;20027;-49
2023/12/02 02:30:10;;;;;;;16.20;4.78;;;5.50;99.90;;;;;;4967411;29;20031;-50
2023/12/02 02:32:36;;;;;;;26.33;4.45;;;5.50;99.90;;;;;;4967365;28;20034;-49
2023/12/02 02:35:01;;;;;;;15.60;4.10;;;5.50;99.90;;;;;;4984810;28;20031;-49
2023/12/02 02:37:27;;;;;;;28.20;4.97;;;5.50;99.90;;;;;;4970752;28;20036;-49
2023/12/02 02:39:52;;;;;;;17.77;4.38;;;5.50;99.90;;;;;;4971029;28;20028;-48
2023/12/02 02:42:18;;;;;;;24.85;4.22;;;5.50;99.90;;;;;;4970873;28;20027;-50
2023/12/02 02:44:43;;;;;;;16.98;4.80;;;5.50;99.90;;;;;;4985382;28;20063;-49
2023/12/02 02:47:09;;;;;;;15.55;3.78;;;5.40;99.90;;;;;;4970765;28;20046;-49
2023/12/02 02:49:34;;;;;;;19.08;4.05;;;5.40;99.90;;;;;;4985647;28;20496;-50
2023/12/02 02:52:00;;;;;;;20.67;3.90;;;5.40;99.90;;;;;;4985656;28;20023;-50
2023/12/02 02:54:25;;;;;;;16.38;3.90;;;5.40;99.90;;;;;;4970631;28;20130;-49
2023/12/02 02:56:51;;;;;;;23.05;4.32;;;5.40;99.90;;;;;;4970494;29;20027;-49
2023/12/02 02:59:17;;;;;;;16.70;4.38;;;5.40;99.90;;;;;;4985516;28;20038;-49
2023/12/02 03:01:45;;;;;;;14.75;3.28;;;5.40;99.90;;;;;;4985459;28;20028;-49
2023/12/02 03:04:10;;;;;;;9.48;3.55;;;5.50;99.90;;;;;;4984961;28;20043;-49
2023/12/02 03:06:36;;;;;;;14.82;3.75;;;5.40;99.90;;;;;;4970477;28;20019;-50
2023/12/02 03:09:01;;;;;;;19.27;3.92;;;5.40;99.90;;;;;;4970446;29;20587;-49
2023/12/02 03:11:27;;;;;;;16.73;4.15;;;5.40;99.90;;;;;;4970345;29;20023;-50
2023/12/02 03:13:52;;;;;;;15.88;3.65;;;5.40;99.90;;;;;;4969030;29;20043;-49
2023/12/02 03:16:18;;;;;;;16.38;3.80;;;5.40;99.90;;;;;;4985032;28;20031;-49
2023/12/02 03:18:44;;;;;;;10.45;3.58;;;5.40;99.90;;;;;;4984978;28;20519;-50
2023/12/02 03:21:09;;;;;;;15.52;3.78;;;5.40;99.90;;;;;;4970089;28;20027;-50
2023/12/02 03:23:35;;;;;;;16.17;3.92;;;5.40;99.90;;;;;;4984709;28;20046;-50
2023/12/02 03:26:00;;;;;;;10.13;3.95;;;5.40;99.90;;;;;;4984729;28;20059;-50
2023/12/02 03:28:26;;;;;;;17.35;4.43;;;5.40;99.90;;;;;;4984738;28;20020;-49
2023/12/02 03:30:52;;;;;;;12.32;3.72;;;5.40;99.90;;;;;;4970036;28;20034;-49
2023/12/02 03:33:18;;;;;;;17.40;4.22;;;5.40;99.90;;;;;;4969905;28;20034;-50
2023/12/02 03:35:43;;;;;;;15.93;4.25;;;5.30;99.90;;;;;;4969900;29;20102;-49
2023/12/02 03:38:09;;;;;;;13.85;3.67;;;5.40;99.90;;;;;;4968450;29;20047;-50
2023/12/02 03:40:35;;;;;;;13.68;3.92;;;5.40;99.90;;;;;;4969772;28;20116;-50
2023/12/02 03:43:00;;;;;;;11.32;4.22;;;5.30;99.90;;;;;;4969757;29;20039;-50
2023/12/02 03:45:26;;;;;;;17.33;4.45;;;5.40;99.90;;;;;;4984387;28;20054;-50
2023/12/02 03:47:52;;;;;;;16.42;4.50;;;5.40;99.90;;;;;;4984533;28;20038;-50
2023/12/02 03:50:18;;;;;;;14.68;3.97;;;5.40;99.90;;;;;;4984739;28;20027;-50
2023/12/02 03:52:44;;;;;;;11.10;3.65;;;5.40;99.90;;;;;;4984437;28;20027;-50
2023/12/02 03:55:10;;;;;;;10.90;3.85;;;5.40;99.90;;;;;;4984359;28;20042;-50
2023/12/02 03:57:35;;;;;;;13.60;4.13;;;5.40;99.90;;;;;;4984341;28;20082;-49
2023/12/02 04:00:10;;;;;;;10.30;3.58;;;5.40;99.90;;;;;;4984395;28;20039;-50
2023/12/02 04:03:08;;;;;;;10.73;4.13;;;5.40;99.90;;;;;;4947498;29;20044;-50
2023/12/02 04:15:21;;;;;;;12.80;3.95;;;5.30;99.90;;;;;;4948194;29;20571;-50
2023/12/02 04:17:46;;;;;;;11.10;3.60;;;5.40;99.90;;;;;;4948487;29;20036;-50
2023/12/02 04:20:15;;;;;;;18.85;4.38;;;5.30;99.90;;;;;;4947515;28;20027;-50
2023/12/02 04:22:40;;;;;;;12.35;3.85;;;5.30;99.90;;;;;;4947586;29;20473;-50
2023/12/02 04:25:07;;;;;;;10.38;3.78;;;5.30;99.90;;;;;;4947485;29;20060;-49
2023/12/02 04:27:32;;;;;;;12.63;4.40;;;5.30;99.90;;;;;;4947497;29;20032;-50
2023/12/02 04:29:58;;;;;;;11.35;3.85;;;5.30;99.90;;;;;;4947188;29;20074;-50
2023/12/02 04:32:23;;;;;;;13.43;4.03;;;5.30;99.90;;;;;;4947553;29;20027;-49
2023/12/02 04:34:49;;;;;;;8.23;3.67;;;5.30;99.90;;;;;;4966872;29;20055;-50
2023/12/02 04:37:15;;;;;;;9.32;3.88;;;5.40;99.90;;;;;;4967349;28;20067;-50
2023/12/02 04:39:41;;;;;;;7.18;3.40;;;5.30;99.90;;;;;;4967347;29;20047;-49
2023/12/02 04:42:06;;;;;;;11.90;3.60;;;5.30;99.90;;;;;;4967558;29;20050;-49
2023/12/02 04:44:32;;;;;;;10.00;4.22;;;5.30;99.90;;;;;;4968538;29;20043;-50
2023/12/02 04:46:58;;;;;;;9.85;3.58;;;5.30;99.90;;;;;;4968617;28;20024;-50
2023/12/02 04:49:24;;;;;;;11.45;3.80;;;5.30;99.90;;;;;;4968531;29;20050;-50
2023/12/02 04:51:49;;;;;;;7.07;3.28;;;5.30;99.90;;;;;;4968564;29;20024;-50
2023/12/02 04:54:15;;;;;;;7.47;3.08;;;5.30;99.90;;;;;;4967303;29;20075;-49
2023/12/02 04:56:40;;;;;;;10.90;3.53;;;5.30;99.90;;;;;;4967797;28;20035;-50
2023/12/02 04:59:06;;;;;;;7.00;3.40;;;5.30;99.90;;;;;;4967251;29;20035;-50
2023/12/02 05:01:32;;;;;;;6.90;3.25;;;5.30;99.90;;;;;;4967253;29;20077;-49
2023/12/02 05:03:58;;;;;;;11.70;3.80;;;5.30;99.90;;;;;;4950946;29;20035;-49
2023/12/02 05:06:23;;;;;;;7.55;3.50;;;5.30;99.90;;;;;;4967006;29;20019;-50
2023/12/02 05:08:49;;;;;;;9.63;3.47;;;5.30;99.90;;;;;;4968260;29;20039;-50
2023/12/02 05:11:21;;;;;;;12.95;3.78;;;5.30;99.90;;;;;;4967035;29;20086;-50
2023/12/02 05:13:47;;;;;;;11.57;3.67;;;5.30;99.90;;;;;;4967040;29;20046;-50
2023/12/02 05:16:13;;;;;;;7.68;3.45;;;5.30;99.90;;;;;;4968206;29;20059;-50
2023/12/02 05:18:40;;;;;;;11.18;3.85;;;5.30;99.90;;;;;;4966896;29;20035;-50
2023/12/02 05:21:06;;;;;;;8.70;3.22;;;5.30;99.90;;;;;;4966918;29;20122;-49
2023/12/02 05:23:32;;;;;;;9.27;3.30;;;5.30;99.90;;;;;;4967958;29;20051;-50
2023/12/02 05:25:57;;;;;;;11.38;3.47;;;5.30;99.90;;;;;;4968101;29;20034;-50
2023/12/02 05:28:23;;;;;;;10.68;3.22;;;5.30;99.90;;;;;;4966634;29;20023;-50
2023/12/02 05:30:50;;;;;;;14.52;3.72;;;5.30;99.90;;;;;;4968016;28;20074;-49
2023/12/02 05:33:17;;;;;;;10.90;3.90;;;5.30;99.90;;;;;;4966958;29;20027;-50
2023/12/02 05:35:42;;;;;;;16.10;3.85;;;5.30;99.90;;;;;;4950584;29;20110;-50
2023/12/02 05:38:08;;;;;;;8.77;3.40;;;5.30;99.90;;;;;;4966615;29;20090;-49
2023/12/02 05:40:34;;;;;;;8.95;3.20;;;5.30;99.90;;;;;;4966439;29;20031;-50
2023/12/02 05:42:59;;;;;;;10.35;3.20;;;5.30;99.90;;;;;;4966526;29;20058;-50
2023/12/02 05:45:25;;;;;;;5.70;3.17;;;5.30;99.90;;;;;;4966635;29;20391;-50
2023/12/02 05:47:50;;;;;;;6.75;2.97;;;5.30;99.90;;;;;;4966743;29;20046;-50
2023/12/02 05:50:16;;;;;;;6.03;2.97;;;5.30;99.90;;;;;;4966666;29;20512;-49
2023/12/02 05:52:42;;;;;;;5.50;3.00;;;5.20;99.90;;;;;;4967620;29;20039;-49
2023/12/02 05:55:07;;;;;;;8.32;3.20;;;5.20;99.90;;;;;;4967790;28;20063;-50
2023/12/02 05:57:33;;;;;;;5.60;2.97;;;5.30;99.90;;;;;;4966698;29;20027;-50
2023/12/02 05:59:59;;;;;;;9.27;2.72;;;5.30;99.90;;;;;;4966682;29;20033;-49
2023/12/02 06:02:24;;;;;;;5.97;2.90;;;5.20;99.90;;;;;;4968005;29;20027;-50
2023/12/02 06:04:50;;;;;;;7.65;3.33;;;5.20;99.90;;;;;;4966153;29;20031;-49
2023/12/02 06:07:15;;;;;;;12.52;3.25;;;5.20;99.90;;;;;;4968719;28;20028;-49
2023/12/02 06:09:42;;;;;;;3.78;2.90;;;5.20;99.90;;;;;;4970168;29;20027;-50
2023/12/02 06:12:08;;;;;;;13.63;3.38;;;5.30;99.90;;;;;;4970842;29;20027;-50
2023/12/02 06:14:34;;;;;;;8.43;2.97;;;5.20;99.90;;;;;;4970405;29;20093;-50
2023/12/02 06:16:59;;;;;;;8.25;3.40;;;5.20;99.90;;;;;;4969950;29;20071;-50
2023/12/02 06:19:25;;;;;;;4.75;2.70;;;5.20;99.90;;;;;;4971117;29;20035;-50
2023/12/02 06:21:51;;;;;;;5.20;2.75;;;5.20;99.90;;;;;;4970142;29;20035;-49
2023/12/02 06:24:17;;;;;;;5.40;2.75;;;5.20;99.90;;;;;;4969786;29;20039;-50
2023/12/02 06:26:42;;;;;;;8.30;3.47;;;5.20;99.90;;;;;;4971226;29;20373;-50
2023/12/02 06:29:08;;;;;;;6.10;2.40;;;5.20;99.90;;;;;;4970006;29;20035;-49
2023/12/02 06:31:33;;;;;;;5.15;2.88;;;5.20;99.90;;;;;;4971357;29;20075;-50
2023/12/02 06:33:59;;;;;;;5.05;3.00;;;5.20;99.90;;;;;;4969898;29;20039;-49
2023/12/02 06:36:24;;;;;;;5.75;3.20;;;5.20;99.90;;;;;;4971107;29;20035;-49
2023/12/02 06:38:50;;;;;;;4.60;2.58;;;5.20;99.90;;;;;;4953406;29;20047;-50
2023/12/02 06:41:16;;;;;;;4.35;2.60;;;5.10;99.90;;;;;;4969818;29;20074;-50
2023/12/02 06:43:41;;;;;;;3.75;2.35;;;5.20;99.90;;;;;;4970663;29;20035;-49
2023/12/02 06:46:07;;;;;;;5.95;2.65;;;5.20;99.90;;;;;;4953514;29;20027;-50
2023/12/02 06:48:33;;;;;;;4.70;2.58;;;5.10;99.90;;;;;;4970908;28;20042;-50
2023/12/02 06:50:58;;;;;;;7.70;2.90;;;5.10;99.90;;;;;;4969600;29;20035;-50
2023/12/02 06:53:24;;;;;;;7.15;2.78;;;5.10;99.90;;;;;;4969384;29;20050;-50
2023/12/02 06:55:49;;;;;;;4.38;2.72;;;5.10;99.90;;;;;;4969054;29;20094;-50
2023/12/02 06:58:15;;;;;;;7.50;3.40;;;5.10;99.90;;;;;;4970273;29;20031;-50
2023/12/02 07:00:40;;;;;;;6.60;2.60;;;5.10;99.90;;;;;;4969431;29;20031;-50
2023/12/02 07:03:08;;;;;;;3.90;2.63;;;5.10;99.90;;;;;;4969282;29;20039;-49
2023/12/02 07:05:34;;;;;;;4.60;2.58;;;5.10;99.90;;;;;;4970529;29;20042;-50
2023/12/02 07:07:59;;;;;;;6.47;2.72;;;5.10;99.90;;;;;;4969259;29;20024;-49
2023/12/02 07:10:26;;;;;;;4.43;2.53;;;5.10;99.90;;;;;;4953015;29;20035;-49
2023/12/02 07:12:51;;;;;;;7.30;2.88;;;5.10;99.90;;;;;;4970574;29;20039;-50
2023/12/02 07:15:17;;;;;;;4.72;3.00;;;5.10;99.90;;;;;;4952973;29;20050;-50
2023/12/02 07:17:43;;;;;;;5.72;2.90;;;5.00;99.90;;;;;;4970228;29;20035;-49
2023/12/02 07:20:09;;;;;;;5.35;2.92;;;5.10;99.90;;;;;;4969718;28;20023;-50
2023/12/02 07:22:34;;;;;;;4.35;3.10;;;5.10;99.90;;;;;;4969085;28;20039;-50
2023/12/02 07:25:00;;;;;;;5.45;2.60;;;5.00;99.90;;;;;;4970079;29;20027;-50
2023/12/02 07:27:25;;;;;;;4.75;3.17;;;5.00;99.90;;;;;;4968912;29;20024;-50
2023/12/02 07:29:51;;;;;;;4.15;2.90;;;5.10;99.90;;;;;;4968874;29;20487;-49
2023/12/02 07:32:16;;;;;;;4.10;2.63;;;5.10;99.90;;;;;;4968850;29;20107;-49
2023/12/02 07:34:42;;;;;;;4.38;2.83;;;5.00;99.90;;;;;;4968652;28;20094;-49
2023/12/02 07:37:08;;;;;;;8.05;2.78;;;5.00;99.90;;;;;;4969710;29;20031;-50
2023/12/02 07:39:34;;;;;;;4.93;2.70;;;5.10;99.90;;;;;;4969937;29;20042;-50
2023/12/02 07:41:59;;;;;;;7.53;3.05;;;5.00;99.90;;;;;;4968307;28;20034;-49
2023/12/02 07:44:25;;;;;;;3.65;2.70;;;5.00;99.90;;;;;;4969671;29;20035;-50
2023/12/02 07:46:50;;;;;;;4.53;3.00;;;5.00;99.90;;;;;;4952333;29;20031;-49
2023/12/02 07:49:16;;;;;;;5.40;2.80;;;5.00;99.90;;;;;;4969667;29;20031;-50
2023/12/02 07:51:41;;;;;;;9.18;2.90;;;5.00;99.90;;;;;;4968614;29;20405;-49
2023/12/02 07:54:07;;;;;;;6.20;2.90;;;5.00;99.90;;;;;;4968219;29;20093;-49
2023/12/02 07:56:33;;;;;;;5.90;3.00;;;5.00;99.90;;;;;;4969475;29;20034;-49
2023/12/02 07:58:58;;;;;;;4.65;2.80;;;5.10;99.90;;;;;;4968282;29;20038;-49
2023/12/02 08:01:24;;;;;;;5.32;2.70;;;5.00;99.90;;;;;;4969492;29;20035;-49
2023/12/02 08:03:50;;;;;;;5.75;2.75;;;5.10;99.90;;;;;;4967893;29;20039;-50
2023/12/02 08:06:15;;;;;;;4.80;2.40;;;5.00;99.90;;;;;;4968176;29;20031;-49
2023/12/02 08:08:41;;;;;;;5.07;2.70;;;5.00;99.90;;;;;;4969370;29;20047;-50
2023/12/02 08:11:07;;;;;;;4.85;2.78;;;5.00;99.90;;;;;;4968088;29;20459;-50
2023/12/02 08:13:32;;;;;;;4.93;2.30;;;5.00;99.90;;;;;;4968985;29;20107;-49
2023/12/02 08:15:58;;;;;;;5.05;2.92;;;5.00;99.90;;;;;;4969219;29;20039;-49
2023/12/02 08:18:24;;;;;;;4.65;2.35;;;4.90;99.90;;;;;;4967691;29;20499;-50
2023/12/02 08:20:49;;;;;;;3.10;2.40;;;4.90;99.90;;;;;;4967815;29;20031;-49
2023/12/02 08:23:15;;;;;;;6.85;2.75;;;4.90;99.90;;;;;;4967617;29;20038;-50
2023/12/02 08:25:41;;;;;;;4.22;2.53;;;5.00;99.90;;;;;;4967595;29;20098;-50
2023/12/02 08:28:07;;;;;;;3.42;2.60;;;4.90;99.90;;;;;;4969015;28;20027;-50
2023/12/02 08:30:32;;;;;;;4.20;2.60;;;4.90;99.90;;;;;;4967300;28;20431;-49
2023/12/02 08:32:58;;;;;;;4.40;2.45;;;4.90;99.90;;;;;;4968084;29;20489;-49
2023/12/02 08:35:23;;;;;;;3.97;2.80;;;4.90;99.90;;;;;;4967679;29;20108;-49
2023/12/02 08:37:49;;;;;;;3.40;2.50;;;4.90;99.90;;;;;;4968527;29;20034;-49
2023/12/02 08:40:14;;;;;;;3.22;2.10;;;4.90;99.90;;;;;;4967332;29;20042;-49
2023/12/02 08:42:40;;;;;;;2.70;2.33;;;4.90;99.90;;;;;;4967246;29;20514;-50
2023/12/02 08:45:06;;;;;;;3.28;2.40;;;4.90;99.90;;;;;;4967443;29;20106;-50
2023/12/02 08:47:32;;;;;;;3.33;2.60;;;4.90;99.90;;;;;;4968670;28;20023;-49
2023/12/02 08:49:57;;;;;;;3.38;2.47;;;4.90;99.90;;;;;;4967307;29;20234;-50
2023/12/02 08:52:23;;;;;;;5.10;2.20;;;4.90;99.90;;;;;;4967358;29;20026;-50
2023/12/02 08:54:49;;;;;;;4.43;3.03;;;4.90;99.90;;;;;;4968398;29;20119;-50
2023/12/02 08:57:14;;;;;;;3.75;2.58;;;4.90;99.90;;;;;;4967241;29;20122;-49
2023/12/02 08:59:40;;;;;;;3.58;2.42;;;4.90;99.90;;;;;;4951084;29;20041;-50
2023/12/02 09:02:07;;;;;;;2.78;2.10;;;4.90;99.90;;;;;;4967662;29;20153;-50
2023/12/02 09:04:33;;;;;;;3.28;2.33;;;4.90;99.90;;;;;;4967836;28;20043;-49
2023/12/02 09:06:58;;;;;;;4.55;2.50;;;4.90;99.90;;;;;;4968289;29;20027;-49
2023/12/02 09:09:24;;;;;;;2.70;2.25;;;4.90;99.90;;;;;;4968147;29;20038;-49
2023/12/02 09:11:50;;;;;;;3.47;2.33;;;4.90;99.90;;;;;;4950803;29;20020;-49
2023/12/02 09:14:15;;;;;;;3.75;2.35;;;4.80;99.90;;;;;;4968097;29;20039;-50
2023/12/02 09:16:46;;;;;;;3.33;2.25;;;4.90;99.90;;;;;;4966741;29;20034;-50
2023/12/02 09:19:26;;;;;;;3.42;2.78;;;4.90;99.90;;;;;;4966886;29;20039;-50
2023/12/02 09:21:52;;;;;;;9.38;3.38;;;4.80;99.90;;;;;;4966531;29;20034;-50
2023/12/02 09:24:34;;;;;;;3.42;2.60;;;4.80;99.90;;;;;;4966380;29;20027;-50
2023/12/02 09:27:06;;;;;;;3.30;2.80;;;4.80;99.90;;;;;;4967810;29;20023;-49
2023/12/02 09:29:35;;;;;;;7.07;2.83;;;4.80;99.90;;;;;;4966971;28;20035;-50
2023/12/02 09:32:08;;;;;;;6.68;2.90;;;4.90;99.90;;;;;;4966274;29;20027;-49
2023/12/02 09:34:40;;;;;;;8.27;2.50;;;4.80;99.90;;;;;;4966064;29;20055;-50
2023/12/02 09:37:27;;;;;;;8.48;2.78;;;4.80;99.90;;;;;;4967459;29;20031;-49
2023/12/02 09:40:20;;;;;;;9.30;3.10;;;4.80;99.90;;;;;;4965954;29;20432;-50
2023/12/02 09:42:58;;;;;;;11.90;2.97;;;4.80;99.90;;;;;;4967283;28;20038;-50
2023/12/02 09:45:27;;;;;;;10.18;3.10;;;4.80;99.90;;;;;;4970073;29;20119;-49
2023/12/02 09:48:02;;;;;;;12.77;3.03;;;4.90;99.90;;;;;;4970503;28;20106;-50
2023/12/02 09:50:29;;;;;;;19.70;3.38;;;4.90;99.90;;;;;;4954975;29;20035;-50
2023/12/02 09:53:12;;;;;;;32.05;4.32;;;4.90;99.90;;;;;;4971411;29;20448;-50
2023/12/02 09:55:43;;;;;;;29.25;3.95;;;4.90;99.90;;;;;;4954942;29;20031;-50
2023/12/02 09:58:27;;;;;;;40.22;4.45;;;4.90;99.90;;;;;;4970382;28;20046;-50
2023/12/02 10:01:08;;;;;;;45.55;6.55;;;4.90;99.90;;;;;;4970021;29;20050;-49
2023/12/02 10:04:05;;;;;;;63.53;7.07;;;4.90;99.90;;;;;;4970389;28;20042;-50
2023/12/02 10:07:10;;;;;;;44.53;6.47;;;4.90;99.90;;;;;;4971224;29;20050;-50
2023/12/02 10:10:00;;;;;;;68.63;7.28;;;4.90;99.90;;;;;;4969975;29;20063;-49
2023/12/02 10:12:47;;;;;;;63.35;8.05;;;5.00;99.90;;;;;;4953665;29;20027;-49
2023/12/02 10:15:12;;;;;;;105.70;10.15;;;4.90;99.90;;;;;;4970962;29;20059;-49
2023/12/02 10:17:52;;;;;;;97.55;9.32;;;5.00;99.90;;;;;;4969406;29;20369;-50
2023/12/02 10:20:18;;;;;;;98.97;10.55;;;5.00;99.90;;;;;;4961346;29;20034;-50
2023/12/02 10:22:49;;;;;;;98.00;10.45;;;5.00;99.90;;;;;;4982874;28;20024;-49
2023/12/02 10:25:33;;;;;;;117.88;12.43;;;5.00;99.90;;;;;;4966842;29;20027;-50
2023/12/02 10:28:05;;;;;;;93.70;10.60;;;5.00;99.90;;;;;;4976621;28;20036;-49
2023/12/02 10:30:31;;;;;;;90.30;10.60;;;5.10;99.90;;;;;;4961482;29;20024;-50
2023/12/02 10:33:09;;;;;;;117.43;13.15;;;5.10;99.90;;;;;;4973678;28;20534;-50
2023/12/02 10:35:43;;;;;;;137.35;14.13;;;5.20;99.90;;;;;;4964021;29;20066;-50
2023/12/02 10:38:27;;;;;;;103.18;13.73;;;5.20;99.90;;;;;;4968263;28;20062;-50
2023/12/02 10:41:09;;;;;;;159.57;15.55;;;5.20;99.90;;;;;;4969716;28;20110;-49
2023/12/02 10:43:41;;;;;;;140.23;14.02;;;5.20;99.90;;;;;;4983933;28;20031;-50
2023/12/02 10:46:10;;;;;;;134.95;14.15;;;5.20;99.90;;;;;;4984128;28;20555;-49
2023/12/02 10:48:36;;;;;;;152.35;15.60;;;5.20;99.90;;;;;;4982533;28;20070;-50
2023/12/02 10:51:03;;;;;;;195.27;19.33;;;5.20;99.90;;;;;;4950971;29;20019;-49
2023/12/02 10:53:28;;;;;;;173.85;18.27;;;5.20;99.90;;;;;;4983387;28;20402;-49
2023/12/02 10:55:57;;;;;;;137.38;15.75;;;5.30;99.90;;;;;;4985729;28;20051;-49
2023/12/02 10:58:23;;;;;;;154.55;17.63;;;5.30;99.90;;;;;;4990246;28;20109;-50
2023/12/02 11:00:51;;;;;;;128.35;14.60;;;5.30;99.90;;;;;;4966637;28;20042;-49
2023/12/02 11:03:40;;;;;;;157.25;18.02;;;5.30;99.90;;;;;;4965221;28;20032;-50
2023/12/02 11:06:13;;;;;;;139.43;17.08;;;5.30;99.90;;;;;;4978433;28;20498;-49
2023/12/02 11:09:06;;;;;;;203.07;21.67;;;5.30;99.90;;;;;;4980067;28;20122;-50
2023/12/02 11:11:32;;;;;;;162.63;18.92;;;5.30;99.90;;;;;;4983253;28;20391;-49
2023/12/02 11:13:59;;;;;;;243.00;26.60;;;5.30;99.90;;;;;;4968961;28;20063;-49
2023/12/02 11:16:37;;;;;;;264.75;24.90;;;5.30;99.90;;;;;;4984316;28;20051;-49
2023/12/02 11:19:38;;;;;;;192.93;21.55;;;5.30;99.90;;;;;;4948972;29;20032;-49
2023/12/02 11:22:06;;;;;;;203.13;20.52;;;5.30;99.90;;;;;;4974277;28;20026;-49
2023/12/02 11:24:50;;;;;;;166.02;19.48;;;5.40;99.90;;;;;;4971523;28;20039;-49
2023/12/02 11:27:55;;;;;;;154.93;18.48;;;5.30;99.90;;;;;;4967661;29;20027;-50
2023/12/02 11:30:35;;;;;;;179.80;18.90;;;5.30;99.90;;;;;;4976072;28;20046;-49
2023/12/02 11:33:51;;;;;;;152.77;18.13;;;5.30;99.90;;;;;;4983780;28;20085;-50
2023/12/02 11:36:21;;;;;;;126.20;14.07;;;5.30;99.90;;;;;;4964830;28;20027;-49
2023/12/02 11:38:55;;;;;;;154.52;19.55;;;5.30;99.90;;;;;;4969311;28;20043;-49
2023/12/02 11:41:39;;;;;;;170.10;20.05;;;5.40;99.90;;;;;;4961479;29;20083;-50
2023/12/02 11:44:05;;;;;;;180.70;21.15;;;5.40;99.90;;;;;;4982230;28;20094;-49
2023/12/02 11:46:33;;;;;;;159.38;17.42;;;5.30;99.90;;;;;;4966010;28;20499;-49
2023/12/02 11:49:13;;;;;;;159.32;20.38;;;5.40;99.90;;;;;;4965749;28;20071;-49
2023/12/02 11:51:53;;;;;;;155.05;18.42;;;5.30;99.90;;;;;;4978026;28;20034;-49
2023/12/02 11:54:30;;;;;;;179.40;19.73;;;5.40;99.90;;;;;;4975991;28;20023;-49
2023/12/02 11:57:21;;;;;;;135.15;18.13;;;5.40;99.90;;;;;;4974023;28;20046;-49
2023/12/02 12:00:03;;;;;;;139.80;19.80;;;5.40;99.90;;;;;;4967546;28;20051;-49
2023/12/02 12:03:02;;;;;;;170.57;22.15;;;5.40;99.90;;;;;;4982173;28;20031;-48
2023/12/02 12:05:41;;;;;;;204.00;23.70;;;5.40;99.90;;;;;;4983045;28;20055;-49
2023/12/02 12:08:20;;;;;;;217.50;23.73;;;5.40;99.90;;;;;;4983646;28;20030;-49
2023/12/02 12:10:46;;;;;;;190.80;22.42;;;5.40;99.90;;;;;;4983653;28;20031;-49
2023/12/02 12:13:12;;;;;;;188.93;20.30;;;5.40;99.90;;;;;;4983454;28;20480;-49
2023/12/02 12:15:38;;;;;;;145.98;18.73;;;5.40;99.90;;;;;;4983382;28;20062;-48
2023/12/02 12:18:04;;;;;;;147.25;20.98;;;5.40;99.90;;;;;;4983331;28;20067;-49
2023/12/02 12:20:31;;;;;;;151.65;19.23;;;5.40;99.90;;;;;;4968736;28;20044;-49
2023/12/02 12:22:57;;;;;;;153.70;19.23;;;5.40;99.90;;;;;;4983313;28;20133;-49
2023/12/02 12:25:28;;;;;;;143.63;18.60;;;5.40;99.90;;;;;;4968372;28;20032;-50
2023/12/02 12:27:54;;;;;;;161.13;17.65;;;5.40;99.90;;;;;;4968618;28;20027;-49
2023/12/02 12:30:19;;;;;;;152.02;18.00;;;5.40;99.90;;;;;;4968577;29;20035;-49
2023/12/02 12:32:45;;;;;;;148.32;16.48;;;5.40;99.90;;;;;;4964218;29;20039;-49
2023/12/02 12:35:11;;;;;;;157.88;19.27;;;5.40;99.90;;;;;;4967823;28;20035;-50
2023/12/02 12:37:37;;;;;;;136.38;17.65;;;5.40;99.90;;;;;;4952406;29;20031;-49
2023/12/02 12:40:03;;;;;;;169.93;23.27;;;5.40;99.90;;;;;;4983085;28;20059;-49
2023/12/02 12:42:29;;;;;;;219.50;22.80;;;5.40;99.90;;;;;;4968429;28;20082;-49
2023/12/02 12:44:57;;;;;;;153.43;20.50;;;5.40;99.90;;;;;;4982980;28;20039;-49
2023/12/02 12:47:23;;;;;;;197.45;21.48;;;5.40;99.90;;;;;;4982943;28;20023;-49
2023/12/02 12:49:49;;;;;;;186.20;22.05;;;5.40;99.90;;;;;;4966697;29;20031;-49
2023/12/02 12:52:14;;;;;;;241.00;28.13;;;5.40;99.90;;;;;;4982642;28;20055;-49
2023/12/02 12:54:46;;;;;;;196.20;23.45;;;5.40;99.90;;;;;;4982902;28;20091;-49
2023/12/02 12:57:14;;;;;;;195.65;21.20;;;5.40;99.90;;;;;;4980918;28;20507;-49
2023/12/02 12:59:40;;;;;;;188.75;22.08;;;5.40;99.90;;;;;;4982290;28;20043;-49
2023/12/02 13:02:28;;;;;;;160.38;19.70;;;5.40;99.90;;;;;;4966827;28;20071;-49